sensor_id;sensor_type;location;lat;lon;timestamp;P1;durP1;ratioP1;P2;durP2;ratioP2
72645;SDS011;60687;53.876;10.674;2022-12-18T00:05:48;24.80;;;12.90;;
72645;SDS011;60687;53.876;10.674;2022-12-18T00:15:52;21.70;;;12.73;;
72645;SDS011;60687;53.876;10.674;2022-12-18T00:25:55;22.58;;;13.02;;
72645;SDS011;60687;53.876;10.674;2022-12-18T00:36:02;22.63;;;13.10;;
72645;SDS011;60687;53.876;10.674;2022-12-18T00:46:05;25.73;;;13.63;;
72645;SDS011;60687;53.876;10.674;2022-12-18T00:56:09;25.58;;;14.05;;
72645;SDS011;60687;53.876;10.674;2022-12-18T01:06:11;19.80;;;11.63;;
72645;SDS011;60687;53.876;10.674;2022-12-18T01:16:16;23.23;;;13.37;;
72645;SDS011;60687;53.876;10.674;2022-12-18T01:26:19;22.48;;;13.55;;
72645;SDS011;60687;53.876;10.674;2022-12-18T01:36:23;21.08;;;13.13;;
72645;SDS011;60687;53.876;10.674;2022-12-18T01:46:27;21.03;;;11.70;;
72645;SDS011;60687;53.876;10.674;2022-12-18T01:56:30;21.47;;;12.30;;
72645;SDS011;60687;53.876;10.674;2022-12-18T02:06:33;21.67;;;12.73;;
72645;SDS011;60687;53.876;10.674;2022-12-18T02:16:43;22.27;;;11.60;;
72645;SDS011;60687;53.876;10.674;2022-12-18T02:26:50;22.77;;;12.23;;
72645;SDS011;60687;53.876;10.674;2022-12-18T02:36:58;23.10;;;12.70;;
72645;SDS011;60687;53.876;10.674;2022-12-18T02:47:04;23.97;;;11.87;;
72645;SDS011;60687;53.876;10.674;2022-12-18T02:57:11;24.33;;;12.93;;
72645;SDS011;60687;53.876;10.674;2022-12-18T03:07:21;22.48;;;12.68;;
72645;SDS011;60687;53.876;10.674;2022-12-18T03:17:30;23.25;;;12.20;;
72645;SDS011;60687;53.876;10.674;2022-12-18T03:27:35;24.50;;;12.87;;
72645;SDS011;60687;53.876;10.674;2022-12-18T03:37:39;23.80;;;12.90;;
72645;SDS011;60687;53.876;10.674;2022-12-18T03:47:44;26.08;;;12.57;;
72645;SDS011;60687;53.876;10.674;2022-12-18T03:57:52;24.20;;;13.37;;
72645;SDS011;60687;53.876;10.674;2022-12-18T04:07:59;23.27;;;12.57;;
72645;SDS011;60687;53.876;10.674;2022-12-18T04:18:02;20.52;;;12.00;;
72645;SDS011;60687;53.876;10.674;2022-12-18T04:28:06;22.30;;;12.77;;
72645;SDS011;60687;53.876;10.674;2022-12-18T04:38:08;23.30;;;13.13;;
72645;SDS011;60687;53.876;10.674;2022-12-18T04:48:21;22.17;;;12.75;;
72645;SDS011;60687;53.876;10.674;2022-12-18T04:58:23;24.92;;;12.60;;
72645;SDS011;60687;53.876;10.674;2022-12-18T05:08:27;23.03;;;12.73;;
72645;SDS011;60687;53.876;10.674;2022-12-18T05:18:29;26.87;;;13.30;;
72645;SDS011;60687;53.876;10.674;2022-12-18T05:28:33;26.63;;;13.45;;
72645;SDS011;60687;53.876;10.674;2022-12-18T05:38:37;29.30;;;15.13;;
72645;SDS011;60687;53.876;10.674;2022-12-18T05:48:41;27.37;;;14.80;;
72645;SDS011;60687;53.876;10.674;2022-12-18T05:58:44;26.95;;;15.45;;
72645;SDS011;60687;53.876;10.674;2022-12-18T06:08:48;20.60;;;10.93;;
72645;SDS011;60687;53.876;10.674;2022-12-18T06:18:50;26.77;;;14.50;;
72645;SDS011;60687;53.876;10.674;2022-12-18T06:28:53;22.02;;;11.77;;
72645;SDS011;60687;53.876;10.674;2022-12-18T06:38:56;24.75;;;12.10;;
72645;SDS011;60687;53.876;10.674;2022-12-18T06:49:00;23.23;;;11.30;;
72645;SDS011;60687;53.876;10.674;2022-12-18T06:59:02;22.43;;;11.37;;
72645;SDS011;60687;53.876;10.674;2022-12-18T07:09:05;23.08;;;10.13;;
72645;SDS011;60687;53.876;10.674;2022-12-18T07:29:13;23.47;;;10.53;;
72645;SDS011;60687;53.876;10.674;2022-12-18T07:39:15;25.38;;;11.07;;
72645;SDS011;60687;53.876;10.674;2022-12-18T07:49:18;20.70;;;10.10;;
72645;SDS011;60687;53.876;10.674;2022-12-18T07:59:22;23.57;;;11.40;;
72645;SDS011;60687;53.876;10.674;2022-12-18T08:09:25;24.98;;;11.07;;
72645;SDS011;60687;53.876;10.674;2022-12-18T08:19:28;23.40;;;11.23;;
72645;SDS011;60687;53.876;10.674;2022-12-18T08:29:32;21.83;;;11.00;;
72645;SDS011;60687;53.876;10.674;2022-12-18T08:39:38;26.37;;;10.53;;
72645;SDS011;60687;53.876;10.674;2022-12-18T08:49:44;27.13;;;12.27;;
72645;SDS011;60687;53.876;10.674;2022-12-18T08:59:46;21.53;;;10.40;;
72645;SDS011;60687;53.876;10.674;2022-12-18T09:09:49;21.53;;;10.30;;
72645;SDS011;60687;53.876;10.674;2022-12-18T09:19:51;23.00;;;10.70;;
72645;SDS011;60687;53.876;10.674;2022-12-18T09:29:55;26.37;;;11.73;;
72645;SDS011;60687;53.876;10.674;2022-12-18T09:39:57;26.47;;;12.23;;
72645;SDS011;60687;53.876;10.674;2022-12-18T09:50:01;25.48;;;12.77;;
72645;SDS011;60687;53.876;10.674;2022-12-18T10:00:11;24.75;;;10.90;;
72645;SDS011;60687;53.876;10.674;2022-12-18T10:20:43;23.80;;;11.30;;
72645;SDS011;60687;53.876;10.674;2022-12-18T10:30:50;23.67;;;9.88;;
72645;SDS011;60687;53.876;10.674;2022-12-18T10:40:53;20.70;;;9.77;;
72645;SDS011;60687;53.876;10.674;2022-12-18T10:50:58;21.67;;;8.93;;
72645;SDS011;60687;53.876;10.674;2022-12-18T11:01:02;23.95;;;10.27;;
72645;SDS011;60687;53.876;10.674;2022-12-18T11:11:15;22.23;;;10.30;;
72645;SDS011;60687;53.876;10.674;2022-12-18T11:21:21;23.03;;;11.07;;
72645;SDS011;60687;53.876;10.674;2022-12-18T11:31:26;23.30;;;10.48;;
72645;SDS011;60687;53.876;10.674;2022-12-18T11:41:32;22.17;;;10.82;;
72645;SDS011;60687;53.876;10.674;2022-12-18T11:52:00;23.27;;;10.23;;
72645;SDS011;60687;53.876;10.674;2022-12-18T12:02:12;26.80;;;13.13;;
72645;SDS011;60687;53.876;10.674;2022-12-18T12:12:36;20.85;;;10.13;;
72645;SDS011;60687;53.876;10.674;2022-12-18T12:22:48;24.30;;;10.73;;
72645;SDS011;60687;53.876;10.674;2022-12-18T12:33:05;21.53;;;9.97;;
72645;SDS011;60687;53.876;10.674;2022-12-18T12:43:21;26.23;;;10.55;;
72645;SDS011;60687;53.876;10.674;2022-12-18T12:53:31;21.70;;;9.83;;
72645;SDS011;60687;53.876;10.674;2022-12-18T13:03:41;22.13;;;10.50;;
72645;SDS011;60687;53.876;10.674;2022-12-18T13:13:49;25.77;;;11.80;;
72645;SDS011;60687;53.876;10.674;2022-12-18T13:23:52;26.00;;;11.30;;
72645;SDS011;60687;53.876;10.674;2022-12-18T13:33:58;22.80;;;10.40;;
72645;SDS011;60687;53.876;10.674;2022-12-18T13:44:21;28.57;;;12.33;;
72645;SDS011;60687;53.876;10.674;2022-12-18T13:54:30;23.50;;;9.43;;
72645;SDS011;60687;53.876;10.674;2022-12-18T14:04:36;27.10;;;10.10;;
72645;SDS011;60687;53.876;10.674;2022-12-18T14:14:39;28.57;;;11.23;;
72645;SDS011;60687;53.876;10.674;2022-12-18T14:24:43;26.27;;;10.25;;
72645;SDS011;60687;53.876;10.674;2022-12-18T14:34:47;21.57;;;9.80;;
72645;SDS011;60687;53.876;10.674;2022-12-18T14:44:50;23.57;;;9.73;;
72645;SDS011;60687;53.876;10.674;2022-12-18T14:54:55;25.67;;;10.80;;
72645;SDS011;60687;53.876;10.674;2022-12-18T15:05:00;27.40;;;11.73;;
72645;SDS011;60687;53.876;10.674;2022-12-18T15:25:41;21.60;;;10.43;;
72645;SDS011;60687;53.876;10.674;2022-12-18T15:35:43;27.65;;;11.75;;
72645;SDS011;60687;53.876;10.674;2022-12-18T15:45:47;29.80;;;12.03;;
72645;SDS011;60687;53.876;10.674;2022-12-18T16:06:51;23.63;;;11.18;;
72645;SDS011;60687;53.876;10.674;2022-12-18T16:16:56;24.30;;;12.67;;
72645;SDS011;60687;53.876;10.674;2022-12-18T16:27:01;33.07;;;13.90;;
72645;SDS011;60687;53.876;10.674;2022-12-18T16:37:04;26.48;;;11.75;;
72645;SDS011;60687;53.876;10.674;2022-12-18T16:47:09;27.40;;;12.00;;
72645;SDS011;60687;53.876;10.674;2022-12-18T16:57:12;22.20;;;10.77;;
72645;SDS011;60687;53.876;10.674;2022-12-18T17:07:16;27.30;;;11.67;;
72645;SDS011;60687;53.876;10.674;2022-12-18T17:17:18;33.75;;;12.95;;
72645;SDS011;60687;53.876;10.674;2022-12-18T17:27:22;27.60;;;11.43;;
72645;SDS011;60687;53.876;10.674;2022-12-18T17:37:44;26.67;;;12.50;;
72645;SDS011;60687;53.876;10.674;2022-12-18T17:47:48;25.10;;;10.88;;
72645;SDS011;60687;53.876;10.674;2022-12-18T17:57:50;27.67;;;12.37;;
72645;SDS011;60687;53.876;10.674;2022-12-18T18:07:54;27.57;;;11.30;;
72645;SDS011;60687;53.876;10.674;2022-12-18T18:17:56;21.95;;;10.70;;
72645;SDS011;60687;53.876;10.674;2022-12-18T18:27:59;26.50;;;11.88;;
72645;SDS011;60687;53.876;10.674;2022-12-18T18:38:01;21.90;;;11.20;;
72645;SDS011;60687;53.876;10.674;2022-12-18T18:48:05;23.13;;;11.43;;
72645;SDS011;60687;53.876;10.674;2022-12-18T18:58:07;21.25;;;10.63;;
72645;SDS011;60687;53.876;10.674;2022-12-18T19:08:10;21.37;;;10.00;;
72645;SDS011;60687;53.876;10.674;2022-12-18T19:18:13;23.20;;;12.20;;
72645;SDS011;60687;53.876;10.674;2022-12-18T19:28:17;24.38;;;11.48;;
72645;SDS011;60687;53.876;10.674;2022-12-18T19:38:19;19.40;;;10.13;;
72645;SDS011;60687;53.876;10.674;2022-12-18T19:48:23;19.03;;;9.77;;
72645;SDS011;60687;53.876;10.674;2022-12-18T19:58:25;21.60;;;10.15;;
72645;SDS011;60687;53.876;10.674;2022-12-18T20:08:38;22.42;;;10.15;;
72645;SDS011;60687;53.876;10.674;2022-12-18T20:18:49;23.70;;;11.57;;
72645;SDS011;60687;53.876;10.674;2022-12-18T20:29:09;22.37;;;10.30;;
72645;SDS011;60687;53.876;10.674;2022-12-18T20:39:14;19.88;;;10.80;;
72645;SDS011;60687;53.876;10.674;2022-12-18T20:49:18;24.57;;;11.70;;
72645;SDS011;60687;53.876;10.674;2022-12-18T20:59:20;20.27;;;11.47;;
72645;SDS011;60687;53.876;10.674;2022-12-18T21:09:25;21.48;;;10.10;;
72645;SDS011;60687;53.876;10.674;2022-12-18T21:19:28;22.23;;;10.37;;
72645;SDS011;60687;53.876;10.674;2022-12-18T21:29:31;21.60;;;9.67;;
72645;SDS011;60687;53.876;10.674;2022-12-18T21:39:34;22.50;;;10.55;;
72645;SDS011;60687;53.876;10.674;2022-12-18T21:49:37;21.73;;;10.35;;
72645;SDS011;60687;53.876;10.674;2022-12-18T21:59:39;23.07;;;10.83;;
72645;SDS011;60687;53.876;10.674;2022-12-18T22:09:46;20.40;;;10.17;;
72645;SDS011;60687;53.876;10.674;2022-12-18T22:19:51;22.23;;;10.40;;
72645;SDS011;60687;53.876;10.674;2022-12-18T22:29:54;19.43;;;9.13;;
72645;SDS011;60687;53.876;10.674;2022-12-18T22:40:05;20.23;;;9.53;;
72645;SDS011;60687;53.876;10.674;2022-12-18T22:50:12;22.10;;;10.32;;
72645;SDS011;60687;53.876;10.674;2022-12-18T23:00:28;23.90;;;9.83;;
72645;SDS011;60687;53.876;10.674;2022-12-18T23:10:31;19.63;;;9.23;;
72645;SDS011;60687;53.876;10.674;2022-12-18T23:31:11;21.58;;;10.30;;
72645;SDS011;60687;53.876;10.674;2022-12-18T23:41:15;24.10;;;9.97;;
72645;SDS011;60687;53.876;10.674;2022-12-18T23:51:31;18.73;;;8.90;;
